Time;durP1;ratioP1;P1;durP2;ratioP2;P2;SDS_P1;SDS_P2;PMS_P1;PMS_P2;Temp;Humidity;BMP_temperature;BMP_pressure;BME280_temperature;BME280_humidity;BME280_pressure;Samples;Min_cycle;Max_cycle;Signal;HPM_P1;HPM_P2
2022/11/25 06:57:08;;;;;;;4.60;1.42;;;;;;;;;;10502517;28;20181;-82
2022/11/25 07:02:11;;;;;;;4.00;1.30;;;;;;;;;;10500256;28;20033;-82
2022/11/25 07:07:12;;;;;;;5.45;1.55;;;;;;;;;;10503415;28;20025;-82
2022/11/25 07:12:13;;;;;;;6.25;2.00;;;;;;;;;;10500231;28;20032;-82
2022/11/25 07:17:14;;;;;;;4.45;1.67;;;;;;;;;;10502958;28;20057;-82
2022/11/25 07:22:15;;;;;;;;;;;;;;;;;;10502079;28;20082;-82
2022/11/25 07:27:16;;;;;;;5.18;2.00;;;;;;;;;;10500961;28;19950;-83
2022/11/25 07:32:17;;;;;;;;;;;;;;;;;;10505222;28;20048;-81
2022/11/25 07:37:18;;;;;;;5.68;2.13;;;;;;;;;;10501290;28;19954;-82
2022/11/25 07:42:19;;;;;;;;;;;;;;;;;;10502486;28;20032;-82
2022/11/25 07:47:20;;;;;;;5.47;1.80;;;;;;;;;;10502136;28;19915;-82
2022/11/25 07:52:21;;;;;;;5.70;2.33;;;;;;;;;;10502958;28;20120;-82
2022/11/25 07:57:22;;;;;;;4.13;1.67;;;;;;;;;;10505309;28;20024;-81
2022/11/25 08:02:23;;;;;;;;;;;;;;;;;;10510590;28;20028;-82
2022/11/25 08:07:24;;;;;;;4.80;1.98;;;;;;;;;;10477617;28;20335;-81
2022/11/25 08:12:25;;;;;;;6.13;2.08;;;;;;;;;;10474069;28;20487;-81
2022/11/25 08:17:26;;;;;;;8.88;4.53;;;;;;;;;;10478005;28;20021;-81
2022/11/25 08:22:27;;;;;;;6.05;2.05;;;;;;;;;;10502953;28;20186;-80
2022/11/25 08:27:28;;;;;;;5.45;2.30;;;;;;;;;;10511727;28;20029;-79
2022/11/25 08:32:29;;;;;;;5.90;2.70;;;;;;;;;;10511397;28;20024;-80
2022/11/25 08:37:31;;;;;;;8.65;4.20;;;;;;;;;;10507242;28;20074;-80
2022/11/25 08:42:32;;;;;;;9.80;5.57;;;;;;;;;;10493220;28;20042;-81
2022/11/25 08:47:33;;;;;;;8.73;4.75;;;;;;;;;;10490250;28;20037;-79
2022/11/25 08:52:34;;;;;;;7.95;4.45;;;;;;;;;;10472405;28;20033;-81
2022/11/25 08:57:35;;;;;;;8.48;4.80;;;;;;;;;;10471735;28;20077;-80
2022/11/25 09:02:36;;;;;;;8.05;4.15;;;;;;;;;;10467476;28;20500;-80
2022/11/25 09:07:37;;;;;;;8.60;5.13;;;;;;;;;;10466412;28;20021;-80
2022/11/25 09:12:39;;;;;;;10.32;3.83;;;;;;;;;;10470620;28;20104;-80
2022/11/25 09:17:40;;;;;;;5.72;3.25;;;;;;;;;;10469600;28;20120;-80
2022/11/25 09:22:41;;;;;;;8.18;4.13;;;;;;;;;;10466898;28;20040;-80
2022/11/25 09:27:42;;;;;;;7.90;4.05;;;;;;;;;;10466614;28;20368;-79
2022/11/25 09:32:43;;;;;;;6.63;3.40;;;;;;;;;;10467259;28;20025;-80
2022/11/25 09:37:44;;;;;;;6.57;3.63;;;;;;;;;;10467115;28;20071;-81
2022/11/25 09:48:18;;;;;;;8.07;3.72;;;;;;;;;;10468765;28;20029;-80
2022/11/25 09:53:22;;;;;;;5.28;2.80;;;;;;;;;;10465241;28;20037;-78
2022/11/25 09:58:32;;;;;;;16.58;8.07;;;;;;;;;;10464686;28;20033;-79
2022/11/25 10:03:39;;;;;;;8.48;4.07;;;;;;;;;;10464166;28;20037;-79
2022/11/25 10:08:45;;;;;;;7.68;3.13;;;;;;;;;;10464039;28;20025;-79
2022/11/25 10:14:09;;;;;;;6.20;3.10;;;;;;;;;;10465960;28;20078;-81
2022/11/25 10:19:19;;;;;;;5.75;3.28;;;;;;;;;;10467346;28;20021;-81
2022/11/25 10:24:20;;;;;;;11.57;6.07;;;;;;;;;;10464993;28;20523;-79
2022/11/25 10:29:24;;;;;;;6.90;3.40;;;;;;;;;;10466348;28;20079;-79
2022/11/25 10:34:34;;;;;;;6.88;4.03;;;;;;;;;;10463179;28;20025;-80
2022/11/25 10:39:35;;;;;;;5.72;2.60;;;;;;;;;;10463583;28;20028;-79
2022/11/25 10:44:36;;;;;;;;;;;;;;;;;;10461271;28;20029;-79
2022/11/25 10:49:37;;;;;;;6.45;3.03;;;;;;;;;;10460445;28;19930;-79
2022/11/25 10:54:38;;;;;;;;;;;;;;;;;;10461486;28;20469;-80
2022/11/25 10:59:39;;;;;;;6.13;2.97;;;;;;;;;;10459942;28;19958;-80
2022/11/25 11:05:00;;;;;;;7.57;3.28;;;;;;;;;;10461961;28;20364;-78
2022/11/25 11:10:23;;;;;;;6.70;3.08;;;;;;;;;;10461663;28;20025;-79
2022/11/25 11:15:29;;;;;;;5.55;2.53;;;;;;;;;;10456967;28;20447;-79
2022/11/25 11:20:31;;;;;;;3.83;2.10;;;;;;;;;;10462694;28;20029;-79
2022/11/25 11:25:36;;;;;;;16.08;9.52;;;;;;;;;;10464393;28;20021;-80
2022/11/25 11:30:52;;;;;;;9.13;3.25;;;;;;;;;;10463925;28;20029;-79
2022/11/25 11:36:10;;;;;;;5.75;3.30;;;;;;;;;;10461563;28;20083;-78
2022/11/25 11:41:21;;;;;;;6.47;2.83;;;;;;;;;;10470608;28;20027;-79
2022/11/25 11:46:30;;;;;;;7.35;2.58;;;;;;;;;;10471494;28;20066;-79
2022/11/25 11:51:47;;;;;;;6.55;2.15;;;;;;;;;;10471980;28;20021;-80
2022/11/25 11:57:03;;;;;;;6.40;3.08;;;;;;;;;;10473846;28;20402;-78
2022/11/25 12:02:16;;;;;;;7.97;3.25;;;;;;;;;;10473114;28;20029;-79
2022/11/25 12:07:23;;;;;;;6.55;2.72;;;;;;;;;;10473978;28;20036;-79
2022/11/25 12:12:38;;;;;;;5.97;3.00;;;;;;;;;;10474963;28;20044;-78
2022/11/25 12:17:45;;;;;;;6.95;2.90;;;;;;;;;;10482950;28;20083;-79
2022/11/25 12:22:51;;;;;;;7.78;3.20;;;;;;;;;;10479741;28;20032;-79
2022/11/25 12:28:06;;;;;;;6.38;3.00;;;;;;;;;;10473074;28;20116;-79
2022/11/25 12:33:12;;;;;;;7.28;3.28;;;;;;;;;;10474679;28;20459;-80
2022/11/25 12:38:23;;;;;;;6.47;2.65;;;;;;;;;;10472965;28;20093;-79
2022/11/25 12:43:27;;;;;;;4.47;2.55;;;;;;;;;;10469829;28;20491;-79
2022/11/25 12:48:28;;;;;;;5.47;2.70;;;;;;;;;;10474114;28;20021;-80
2022/11/25 12:53:39;;;;;;;4.45;2.20;;;;;;;;;;10470130;28;20119;-79
2022/11/25 12:58:40;;;;;;;;;;;;;;;;;;10472583;28;20346;-78
2022/11/25 13:03:50;;;;;;;5.55;2.83;;;;;;;;;;10469557;28;20347;-79
2022/11/25 13:08:54;;;;;;;13.07;7.75;;;;;;;;;;10466343;28;20033;-80
2022/11/25 13:14:01;;;;;;;5.20;2.55;;;;;;;;;;10466584;28;20039;-80
2022/11/25 13:19:08;;;;;;;7.32;2.72;;;;;;;;;;10467648;28;20054;-80
2022/11/25 13:24:26;;;;;;;6.38;2.65;;;;;;;;;;10467869;28;20104;-79
2022/11/25 13:29:29;;;;;;;5.38;2.75;;;;;;;;;;10465442;28;20035;-79
2022/11/25 13:34:31;;;;;;;4.05;2.35;;;;;;;;;;10465340;28;20036;-79
2022/11/25 13:39:34;;;;;;;7.57;2.45;;;;;;;;;;10466234;28;20039;-79
2022/11/25 13:44:48;;;;;;;4.43;2.08;;;;;;;;;;10468716;28;20074;-79
2022/11/25 13:50:00;;;;;;;8.25;2.63;;;;;;;;;;10466337;28;20021;-80
2022/11/25 13:55:07;;;;;;;3.88;2.20;;;;;;;;;;10466992;28;20173;-78
2022/11/25 14:00:14;;;;;;;6.93;3.17;;;;;;;;;;10469899;28;20124;-79
2022/11/25 14:05:15;;;;;;;5.97;2.45;;;;;;;;;;10467167;28;20195;-78
2022/11/25 14:10:19;;;;;;;4.50;2.30;;;;;;;;;;10469841;28;20045;-78
2022/11/25 14:15:26;;;;;;;4.22;2.05;;;;;;;;;;10468703;28;20029;-79
2022/11/25 14:20:42;;;;;;;5.80;2.25;;;;;;;;;;10468274;28;20041;-80
2022/11/25 14:25:52;;;;;;;4.18;2.42;;;;;;;;;;10465753;28;20028;-79
2022/11/25 14:30:58;;;;;;;7.38;2.72;;;;;;;;;;10465778;28;20520;-79
2022/11/25 14:36:02;;;;;;;5.43;2.10;;;;;;;;;;10465540;28;20021;-80
2022/11/25 14:41:06;;;;;;;5.28;2.85;;;;;;;;;;10466980;28;20091;-80
2022/11/25 14:46:25;;;;;;;5.10;2.22;;;;;;;;;;10466925;28;20104;-82
2022/11/25 14:51:33;;;;;;;6.63;3.47;;;;;;;;;;10467651;28;20035;-78
2022/11/25 14:56:35;;;;;;;6.15;2.10;;;;;;;;;;10465700;28;20033;-79
2022/11/25 15:01:38;;;;;;;6.05;2.78;;;;;;;;;;10465132;28;20043;-80
2022/11/25 15:06:41;;;;;;;4.57;2.60;;;;;;;;;;10465573;28;20475;-80
2022/11/25 15:11:42;;;;;;;6.70;2.80;;;;;;;;;;10462863;28;20031;-80
2022/11/25 15:16:43;;;;;;;5.15;2.20;;;;;;;;;;10469034;28;20119;-80
2022/11/25 15:21:44;;;;;;;8.40;2.65;;;;;;;;;;10470885;28;20133;-79
2022/11/25 15:26:50;;;;;;;8.02;2.33;;;;;;;;;;10473125;28;20097;-80
2022/11/25 15:31:52;;;;;;;5.55;2.28;;;;;;;;;;10470170;28;20024;-80
2022/11/25 15:36:53;;;;;;;6.30;2.90;;;;;;;;;;10470799;28;20032;-79
2022/11/25 15:41:55;;;;;;;7.35;2.70;;;;;;;;;;10477437;28;20131;-79
2022/11/25 15:46:56;;;;;;;5.45;2.63;;;;;;;;;;10470044;28;20052;-80
2022/11/25 15:52:12;;;;;;;5.28;2.53;;;;;;;;;;10469020;28;20029;-80
2022/11/25 15:57:15;;;;;;;7.72;2.65;;;;;;;;;;10469829;28;20087;-79
2022/11/25 16:02:34;;;;;;;4.55;2.63;;;;;;;;;;10469147;28;20451;-80
2022/11/25 16:07:36;;;;;;;6.93;2.42;;;;;;;;;;10469743;28;20075;-80
2022/11/25 16:12:37;;;;;;;6.63;2.13;;;;;;;;;;10468581;28;20081;-79
2022/11/25 16:17:38;;;;;;;5.28;2.65;;;;;;;;;;10469729;28;20029;-80
2022/11/25 16:22:39;;;;;;;5.55;2.50;;;;;;;;;;10467615;28;20440;-81
2022/11/25 16:27:40;;;;;;;4.45;2.25;;;;;;;;;;10469059;28;20112;-80
2022/11/25 16:32:41;;;;;;;5.75;2.40;;;;;;;;;;10476253;28;20063;-80
2022/11/25 16:37:42;;;;;;;5.70;2.50;;;;;;;;;;10468403;28;20403;-80
2022/11/25 16:42:49;;;;;;;6.68;2.75;;;;;;;;;;10478587;22;20093;-83
2022/11/25 16:47:52;;;;;;;10.02;4.15;;;;;;;;;;10424624;28;20124;-83
2022/11/25 16:53:13;;;;;;;7.63;2.70;;;;;;;;;;10442866;28;20487;-83
2022/11/25 16:58:34;;;;;;;4.85;2.20;;;;;;;;;;10453250;28;20085;-82
2022/11/25 17:03:35;;;;;;;4.82;2.30;;;;;;;;;;10449664;28;20025;-81
2022/11/25 17:08:39;;;;;;;6.57;2.72;;;;;;;;;;10452746;28;20026;-83
2022/11/25 17:13:42;;;;;;;4.20;1.90;;;;;;;;;;10449238;28;20037;-79
2022/11/25 17:18:43;;;;;;;5.75;2.70;;;;;;;;;;10457250;28;20033;-82
